Time;durP1;ratioP1;P1;durP2;ratioP2;P2;SDS_P1;SDS_P2;PMS_P1;PMS_P2;Temp;Humidity;BMP_temperature;BMP_pressure;BME280_temperature;BME280_humidity;BME280_pressure;Samples;Min_cycle;Max_cycle;Signal;HPM_P1;HPM_P2
2021/05/20 00:01:53;;;;;;;5.00;2.23;;;;;;;8.87;100.00;96608.59;5037693;28;20229;-68
2021/05/20 00:04:21;;;;;;;3.37;2.57;;;;;;;8.96;100.00;96602.38;5037559;28;20571;-69
2021/05/20 00:06:48;;;;;;;3.00;2.20;;;;;;;8.93;100.00;96607.94;5036946;28;20208;-69
2021/05/20 00:09:14;;;;;;;4.13;2.57;;;;;;;8.85;100.00;96610.53;5037113;28;20247;-69
2021/05/20 00:11:40;;;;;;;5.13;2.90;;;;;;;8.85;100.00;96600.03;5036842;28;20237;-69
2021/05/20 00:14:06;;;;;;;3.73;2.60;;;;;;;8.87;100.00;96600.69;5036980;28;20235;-69
2021/05/20 00:16:32;;;;;;;6.43;2.63;;;;;;;8.88;100.00;96610.22;5037013;28;20219;-69
2021/05/20 00:18:58;;;;;;;4.33;2.90;;;;;;;8.94;100.00;96606.97;5037076;28;20212;-69
2021/05/20 00:21:24;;;;;;;3.77;2.70;;;;;;;8.95;100.00;96611.25;5036827;28;20343;-69
2021/05/20 00:23:51;;;;;;;4.27;2.67;;;;;;;8.94;100.00;96609.59;5037153;28;20212;-69
2021/05/20 00:26:17;;;;;;;5.90;3.50;;;;;;;8.83;100.00;96606.41;5036205;28;20213;-69
2021/05/20 00:28:43;;;;;;;5.10;3.30;;;;;;;8.93;100.00;96613.19;5036907;28;20209;-69
2021/05/20 00:31:10;;;;;;;4.10;3.10;;;;;;;8.96;100.00;96614.69;5036929;28;20952;-69
2021/05/20 00:33:36;;;;;;;5.80;3.33;;;;;;;8.97;100.00;96616.34;5037177;28;20220;-69
2021/05/20 00:36:02;;;;;;;5.57;3.47;;;;;;;8.91;100.00;96615.16;5033304;28;20209;-69
2021/05/20 00:38:29;;;;;;;5.00;3.50;;;;;;;8.98;100.00;96608.28;5037219;28;20219;-69
2021/05/20 00:40:59;;;;;;;6.93;3.50;;;;;;;8.97;100.00;96624.22;5036841;28;20600;-69
2021/05/20 00:43:25;;;;;;;7.30;3.80;;;;;;;8.88;100.00;96625.16;5036700;28;20960;-69
2021/05/20 00:45:52;;;;;;;8.57;3.90;;;;;;;8.80;100.00;96620.69;5036122;28;20204;-69
2021/05/20 00:48:18;;;;;;;6.47;4.00;;;;;;;8.78;100.00;96624.44;5037453;28;20219;-69
2021/05/20 00:50:44;;;;;;;7.90;4.33;;;;;;;8.64;100.00;96625.88;5036552;28;20240;-69
2021/05/20 00:53:11;;;;;;;7.13;4.60;;;;;;;8.76;100.00;96627.25;5036161;28;20205;-69
2021/05/20 00:55:37;;;;;;;9.10;4.97;;;;;;;8.82;100.00;96626.63;5036579;28;20287;-69
2021/05/20 00:58:06;;;;;;;5.57;4.07;;;;;;;8.72;100.00;96620.66;5036369;28;21220;-69
2021/05/20 01:00:32;;;;;;;9.13;4.40;;;;;;;8.74;100.00;96623.13;5036403;28;20420;-69
2021/05/20 01:03:00;;;;;;;7.03;4.40;;;;;;;8.73;100.00;96626.72;5036525;28;20209;-69
2021/05/20 01:05:26;;;;;;;8.57;4.80;;;;;;;8.78;100.00;96625.28;5036033;28;20204;-69
2021/05/20 01:07:52;;;;;;;8.27;5.20;;;;;;;8.85;100.00;96631.56;5036250;28;20212;-69
2021/05/20 01:10:18;;;;;;;7.53;4.60;;;;;;;8.92;100.00;96623.88;5036559;28;20969;-69
2021/05/20 01:12:45;;;;;;;6.10;4.60;;;;;;;8.90;100.00;96629.28;5036229;28;20233;-69
2021/05/20 01:15:24;;;;;;;8.07;4.90;;;;;;;8.89;100.00;96626.81;5035311;28;21110;-69
2021/05/20 01:17:54;;;;;;;10.43;5.33;;;;;;;8.88;100.00;96631.22;5036684;28;20213;-69
2021/05/20 01:20:22;;;;;;;7.00;4.83;;;;;;;8.92;100.00;96627.31;5036294;28;20201;-69
2021/05/20 01:22:49;;;;;;;9.37;5.20;;;;;;;8.99;100.00;96623.09;5036053;28;20208;-69
2021/05/20 01:25:15;;;;;;;6.83;4.80;;;;;;;8.90;100.00;96623.22;5035660;28;20212;-69
2021/05/20 01:27:43;;;;;;;10.23;5.50;;;;;;;8.95;100.00;96621.75;5036773;28;20263;-69
2021/05/20 01:30:10;;;;;;;8.00;5.00;;;;;;;8.99;100.00;96630.16;5036182;28;20213;-69
2021/05/20 01:32:37;;;;;;;6.57;4.70;;;;;;;8.93;100.00;96628.16;5036166;28;20228;-69
2021/05/20 01:35:04;;;;;;;9.67;5.57;;;;;;;8.96;100.00;96625.19;5033278;28;20225;-69
2021/05/20 01:37:31;;;;;;;7.73;5.10;;;;;;;8.99;100.00;96628.34;5035918;28;20267;-69
2021/05/20 01:39:57;;;;;;;11.43;5.30;;;;;;;8.87;100.00;96629.59;5036280;28;20209;-69
2021/05/20 01:42:23;;;;;;;8.80;4.60;;;;;;;8.69;100.00;96634.13;5036211;28;20278;-69
2021/05/20 01:44:50;;;;;;;9.63;4.70;;;;;;;8.72;100.00;96633.78;5036416;28;20201;-69
2021/05/20 01:47:16;;;;;;;7.93;4.40;;;;;;;8.76;100.00;96632.50;5035398;28;20214;-69
2021/05/20 01:49:49;;;;;;;7.77;4.97;;;;;;;8.67;100.00;96627.38;5039279;28;20927;-69
2021/05/20 01:52:15;;;;;;;7.73;5.00;;;;;;;8.77;100.00;96628.91;5039260;28;20282;-69
2021/05/20 01:54:42;;;;;;;7.47;5.10;;;;;;;8.75;100.00;96624.78;5039747;28;20233;-69
2021/05/20 01:57:08;;;;;;;8.10;5.17;;;;;;;8.75;100.00;96616.91;5040165;28;20205;-69
2021/05/20 01:59:34;;;;;;;8.77;4.87;;;;;;;8.67;100.00;96628.19;5039814;28;20201;-69
2021/05/20 02:02:00;;;;;;;20.53;5.40;;;;;;;8.73;100.00;96621.47;5039692;28;20231;-69
2021/05/20 02:04:26;;;;;;;8.30;5.33;;;;;;;8.69;100.00;96630.66;5039194;28;20201;-69
2021/05/20 02:06:52;;;;;;;8.47;4.87;;;;;;;8.67;100.00;96622.94;5039193;28;20261;-69
2021/05/20 02:09:18;;;;;;;8.87;5.03;;;;;;;8.69;100.00;96626.25;5039415;28;20201;-69
2021/05/20 02:11:44;;;;;;;9.43;5.17;;;;;;;8.64;100.00;96618.00;5039442;28;20244;-69
2021/05/20 02:14:10;;;;;;;10.17;4.63;;;;;;;8.62;100.00;96614.69;5039955;28;20233;-69
2021/05/20 02:16:36;;;;;;;9.60;4.97;;;;;;;8.73;100.00;96624.94;5038805;28;20216;-69
2021/05/20 02:19:03;;;;;;;10.03;5.13;;;;;;;8.69;100.00;96620.13;5039177;28;20205;-69
2021/05/20 02:21:29;;;;;;;7.57;4.77;;;;;;;8.62;100.00;96629.63;5039800;28;20229;-69
2021/05/20 02:23:55;;;;;;;7.23;4.90;;;;;;;8.70;100.00;96619.16;5039426;28;20262;-69
2021/05/20 02:26:21;;;;;;;16.40;4.97;;;;;;;8.72;100.00;96623.28;5035377;28;20311;-69
2021/05/20 02:28:48;;;;;;;8.83;4.50;;;;;;;8.74;100.00;96621.31;5039423;28;20202;-69
2021/05/20 02:31:14;;;;;;;6.30;4.37;;;;;;;8.62;100.00;96627.81;5039286;28;20867;-69
2021/05/20 02:33:40;;;;;;;6.87;3.83;;;;;;;8.73;100.00;96626.72;5038950;28;20300;-69
2021/05/20 02:36:06;;;;;;;5.97;4.17;;;;;;;8.62;100.00;96634.88;5035963;28;20247;-69
2021/05/20 02:38:32;;;;;;;10.00;5.53;;;;;;;8.53;100.00;96634.00;5039325;28;20205;-69
2021/05/20 02:40:58;;;;;;;7.13;4.40;;;;;;;8.48;100.00;96632.84;5038550;28;20225;-69
2021/05/20 02:43:26;;;;;;;6.97;4.83;;;;;;;8.57;100.00;96634.53;5038724;28;20215;-69
2021/05/20 02:45:52;;;;;;;7.33;4.63;;;;;;;8.51;100.00;96633.34;5038424;28;20205;-69
2021/05/20 02:48:18;;;;;;;6.37;4.40;;;;;;;8.47;100.00;96627.75;5038993;28;20615;-69
2021/05/20 02:50:45;;;;;;;6.80;4.30;;;;;;;8.37;100.00;96632.25;5039081;28;20282;-69
2021/05/20 02:53:11;;;;;;;7.67;4.60;;;;;;;8.26;100.00;96632.50;5038609;28;21108;-68
2021/05/20 02:55:37;;;;;;;8.60;5.03;;;;;;;8.22;100.00;96631.16;5038104;28;20237;-69
2021/05/20 02:58:03;;;;;;;6.57;4.50;;;;;;;8.20;100.00;96625.25;5038595;28;20212;-69
2021/05/20 03:00:32;;;;;;;7.10;4.80;;;;;;;7.96;100.00;96631.09;5037993;28;20246;-69
2021/05/20 03:02:59;;;;;;;7.03;4.80;;;;;;;8.02;100.00;96632.31;5038922;28;20237;-69
2021/05/20 03:05:25;;;;;;;7.77;5.07;;;;;;;8.05;100.00;96626.75;5038075;28;20205;-69
2021/05/20 03:07:54;;;;;;;9.23;5.30;;;;;;;7.98;100.00;96628.31;5038459;28;20212;-69
2021/05/20 03:10:20;;;;;;;8.03;5.37;;;;;;;7.97;100.00;96637.19;5038594;28;20561;-69
2021/05/20 03:12:46;;;;;;;7.63;5.23;;;;;;;7.78;100.00;96642.59;5038588;28;20237;-69
2021/05/20 03:15:12;;;;;;;9.33;5.43;;;;;;;7.80;100.00;96637.19;5037294;28;20283;-69
2021/05/20 03:17:38;;;;;;;9.80;5.50;;;;;;;7.86;100.00;96640.03;5038050;28;20202;-69
2021/05/20 03:20:07;;;;;;;8.27;5.40;;;;;;;7.77;100.00;96635.69;5038864;28;20205;-69
2021/05/20 03:22:34;;;;;;;8.40;5.47;;;;;;;7.86;100.00;96630.34;5038345;28;20359;-69
2021/05/20 03:25:00;;;;;;;7.30;5.20;;;;;;;7.88;100.00;96643.34;5037780;28;20213;-69
2021/05/20 03:27:26;;;;;;;8.80;5.47;;;;;;;7.93;100.00;96647.16;5037808;28;20205;-69
2021/05/20 03:29:52;;;;;;;7.07;5.03;;;;;;;7.82;100.00;96643.13;5038259;28;20201;-69
2021/05/20 03:32:18;;;;;;;9.07;4.70;;;;;;;7.78;100.00;96647.81;5038030;28;20599;-69
2021/05/20 03:34:44;;;;;;;8.53;5.27;;;;;;;7.80;100.00;96635.38;5035425;28;20225;-69
2021/05/20 03:37:11;;;;;;;8.23;5.30;;;;;;;7.78;100.00;96647.00;5037262;28;20991;-69
2021/05/20 03:39:37;;;;;;;7.87;5.70;;;;;;;7.84;100.00;96646.41;5037507;28;20760;-69
2021/05/20 03:42:04;;;;;;;8.60;4.93;;;;;;;7.72;100.00;96639.75;5038444;28;20233;-69
2021/05/20 03:44:30;;;;;;;7.07;4.60;;;;;;;7.78;100.00;96647.00;5038274;28;20205;-69
2021/05/20 03:46:57;;;;;;;7.40;5.00;;;;;;;7.80;100.00;96643.25;5037135;28;20208;-68
2021/05/20 03:49:23;;;;;;;7.17;4.80;;;;;;;7.84;100.00;96639.38;5037506;28;20258;-69
2021/05/20 03:51:49;;;;;;;9.33;4.70;;;;;;;7.81;100.00;96641.47;5037854;28;20250;-69
2021/05/20 03:54:16;;;;;;;6.73;4.80;;;;;;;7.80;100.00;96653.72;5037449;28;20789;-69
2021/05/20 03:56:42;;;;;;;9.13;5.37;;;;;;;7.87;100.00;96646.94;5037139;28;20210;-69
2021/05/20 03:59:08;;;;;;;8.50;6.00;;;;;;;7.82;100.00;96653.59;5037464;28;20308;-69
2021/05/20 04:01:34;;;;;;;14.53;6.47;;;;;;;7.88;100.00;96659.06;5037565;28;20383;-69
2021/05/20 04:04:00;;;;;;;7.30;5.03;;;;;;;7.91;100.00;96650.91;5037552;28;21427;-69
2021/05/20 04:06:25;;;;;;;7.43;5.13;;;;;;;7.87;100.00;96652.19;5036661;28;20247;-69
2021/05/20 04:08:51;;;;;;;7.90;5.20;;;;;;;7.95;100.00;96667.97;5037794;28;20675;-69
2021/05/20 04:11:18;;;;;;;8.07;5.50;;;;;;;8.04;100.00;96659.19;5036137;28;20307;-69
2021/05/20 04:13:45;;;;;;;8.47;4.97;;;;;;;8.02;100.00;96659.34;5037478;28;20201;-69
2021/05/20 04:16:12;;;;;;;6.97;4.73;;;;;;;8.06;100.00;96667.75;5036856;28;20319;-69
2021/05/20 04:18:38;;;;;;;8.53;5.10;;;;;;;8.06;100.00;96673.81;5037189;28;20205;-69
2021/05/20 04:21:05;;;;;;;9.87;5.77;;;;;;;8.14;100.00;96678.34;5036649;28;20772;-69
2021/05/20 04:23:31;;;;;;;7.63;5.73;;;;;;;8.17;100.00;96680.66;5038559;28;20207;-69
2021/05/20 04:25:57;;;;;;;8.13;5.20;;;;;;;8.14;100.00;96678.34;5036436;28;20201;-69
2021/05/20 04:28:24;;;;;;;8.23;5.57;;;;;;;8.16;100.00;96681.63;5036728;28;20299;-69
2021/05/20 04:30:50;;;;;;;9.80;5.23;;;;;;;8.09;100.00;96685.81;5037581;28;20217;-69
2021/05/20 04:33:16;;;;;;;9.20;5.77;;;;;;;8.06;100.00;96691.38;5037107;28;20204;-69
2021/05/20 04:35:43;;;;;;;9.77;5.43;;;;;;;8.06;100.00;96696.63;5033602;28;20225;-68
2021/05/20 04:38:10;;;;;;;9.40;5.30;;;;;;;8.09;100.00;96698.94;5037332;28;20956;-68
2021/05/20 04:40:37;;;;;;;12.37;5.27;;;;;;;8.15;100.00;96693.13;5036882;28;20201;-68
2021/05/20 04:43:03;;;;;;;9.27;5.67;;;;;;;8.26;100.00;96687.63;5036272;28;20219;-68
2021/05/20 04:45:30;;;;;;;9.13;6.00;;;;;;;8.30;100.00;96686.34;5036712;28;20205;-68
2021/05/20 04:47:56;;;;;;;8.73;5.27;;;;;;;8.39;100.00;96690.69;5036550;28;20746;-68
2021/05/20 04:50:22;;;;;;;10.00;5.93;;;;;;;8.51;100.00;96696.38;5036641;28;20236;-68
2021/05/20 04:52:49;;;;;;;9.50;5.43;;;;;;;8.42;100.00;96700.91;5036607;28;20225;-68
2021/05/20 04:55:16;;;;;;;8.27;5.13;;;;;;;8.37;100.00;96709.22;5035724;28;20221;-68
2021/05/20 04:57:42;;;;;;;8.17;5.13;;;;;;;8.29;100.00;96709.16;5036783;28;20236;-68
2021/05/20 05:00:10;;;;;;;8.23;5.63;;;;;;;8.43;100.00;96715.69;5036224;28;20201;-68
2021/05/20 05:02:37;;;;;;;8.73;5.67;;;;;;;8.34;100.00;96713.94;5036143;28;20217;-68
2021/05/20 05:05:03;;;;;;;11.37;5.90;;;;;;;8.56;100.00;96707.22;5035861;28;20197;-68
2021/05/20 05:07:29;;;;;;;9.93;5.87;;;;;;;8.70;100.00;96711.13;5036613;28;20201;-68
2021/05/20 05:09:55;;;;;;;13.17;6.20;;;;;;;8.80;100.00;96712.66;5036472;28;20207;-68
2021/05/20 05:12:21;;;;;;;16.83;7.10;;;;;;;8.80;100.00;96711.84;5036610;28;20711;-68
2021/05/20 05:14:47;;;;;;;16.97;8.27;;;;;;;8.95;100.00;96708.50;5036265;28;20227;-68
2021/05/20 05:17:14;;;;;;;20.80;10.17;;;;;;;9.01;100.00;96721.00;5035516;28;20216;-69
2021/05/20 05:19:40;;;;;;;10.07;6.07;;;;;;;9.05;100.00;96713.63;5035975;28;21167;-68
2021/05/20 05:22:07;;;;;;;9.47;5.63;;;;;;;8.97;100.00;96722.28;5036717;28;20235;-68
2021/05/20 05:24:33;;;;;;;9.63;6.10;;;;;;;8.89;100.00;96716.97;5040632;28;20216;-68
2021/05/20 05:27:00;;;;;;;9.67;6.00;;;;;;;8.88;100.00;96723.22;5039482;28;20201;-68
2021/05/20 05:29:26;;;;;;;9.13;6.43;;;;;;;8.93;100.00;96715.69;5040905;28;20204;-68
2021/05/20 05:31:53;;;;;;;12.67;5.73;;;;;;;8.96;100.00;96722.44;5040736;28;20220;-68
2021/05/20 05:34:19;;;;;;;15.53;5.40;;;;;;;8.80;100.00;96724.97;5039972;28;21180;-68
2021/05/20 05:36:46;;;;;;;10.37;5.80;;;;;;;8.89;100.00;96721.44;5037347;28;20278;-68
2021/05/20 05:39:13;;;;;;;9.13;6.10;;;;;;;8.95;100.00;96726.03;5039669;28;20209;-68
2021/05/20 05:41:39;;;;;;;9.30;5.27;;;;;;;8.92;100.00;96721.91;5040062;28;21018;-68
2021/05/20 05:44:06;;;;;;;8.03;5.60;;;;;;;8.89;100.00;96727.50;5040440;28;20204;-68
2021/05/20 05:46:32;;;;;;;9.90;5.60;;;;;;;9.03;100.00;96728.75;5039104;28;20203;-68
2021/05/20 05:49:01;;;;;;;10.40;5.50;;;;;;;8.91;100.00;96730.81;5040408;28;20197;-68
2021/05/20 05:51:30;;;;;;;9.07;5.77;;;;;;;9.05;100.00;96735.50;5040299;28;20236;-68
2021/05/20 05:53:57;;;;;;;9.77;5.50;;;;;;;9.18;100.00;96739.34;5038956;28;20292;-68
2021/05/20 05:56:23;;;;;;;8.33;5.10;;;;;;;9.27;100.00;96737.59;5039311;28;20209;-68
2021/05/20 05:58:49;;;;;;;11.27;5.73;;;;;;;9.37;100.00;96740.94;5039165;28;20661;-68
2021/05/20 06:01:15;;;;;;;11.00;6.50;;;;;;;9.45;100.00;96746.22;5039554;28;20221;-68
2021/05/20 06:03:41;;;;;;;7.80;5.10;;;;;;;9.49;100.00;96732.56;5039827;28;20302;-68
2021/05/20 06:06:07;;;;;;;8.77;4.60;;;;;;;9.60;100.00;96744.63;5039174;28;20208;-68
2021/05/20 06:08:33;;;;;;;9.23;4.60;;;;;;;9.80;100.00;96746.81;5039288;28;20205;-68
2021/05/20 06:11:01;;;;;;;7.30;4.20;;;;;;;9.92;100.00;96740.28;5039764;28;20307;-68
2021/05/20 06:13:27;;;;;;;6.40;4.57;;;;;;;9.92;100.00;96745.56;5039759;28;20209;-68
2021/05/20 06:15:53;;;;;;;7.63;4.00;;;;;;;10.06;100.00;96735.25;5038129;28;20256;-68
2021/05/20 06:18:19;;;;;;;7.53;3.83;;;;;;;10.06;100.00;96745.78;5039198;28;20201;-68
2021/05/20 06:20:45;;;;;;;5.80;3.47;;;;;;;10.00;100.00;96746.41;5039689;28;20309;-68
2021/05/20 06:23:11;;;;;;;5.87;3.33;;;;;;;10.03;100.00;96743.47;5039169;28;20263;-68
2021/05/20 06:25:40;;;;;;;8.63;3.50;;;;;;;10.26;100.00;96744.50;5038689;28;20206;-68
2021/05/20 06:28:08;;;;;;;4.33;2.80;;;;;;;10.29;100.00;96738.91;5039862;28;20613;-68
2021/05/20 06:30:34;;;;;;;5.17;2.63;;;;;;;10.40;100.00;96741.25;5039000;28;20208;-68
2021/05/20 06:33:00;;;;;;;3.17;1.93;;;;;;;10.43;100.00;96751.44;5039218;28;20217;-68
2021/05/20 06:35:26;;;;;;;4.87;2.50;;;;;;;10.61;100.00;96747.66;5034694;28;20724;-68
2021/05/20 06:37:52;;;;;;;5.00;2.87;;;;;;;10.70;100.00;96743.19;5039596;28;20292;-68
2021/05/20 06:40:18;;;;;;;4.90;2.57;;;;;;;10.75;100.00;96744.34;5039065;28;20201;-68
2021/05/20 06:42:44;;;;;;;3.43;2.40;;;;;;;10.80;100.00;96747.31;5038424;28;20718;-68
2021/05/20 06:45:12;;;;;;;4.27;2.30;;;;;;;10.85;99.11;96746.81;5038946;28;20275;-68
2021/05/20 06:47:38;;;;;;;5.33;3.00;;;;;;;10.93;100.00;96750.25;5039380;28;20205;-68
2021/05/20 06:50:05;;;;;;;3.53;2.30;;;;;;;10.65;100.00;96753.41;5038699;28;20255;-68
2021/05/20 06:52:32;;;;;;;4.30;2.57;;;;;;;10.74;100.00;96750.59;5039441;28;20221;-68
2021/05/20 06:54:58;;;;;;;3.83;2.60;;;;;;;10.57;100.00;96754.22;5038805;28;20232;-68
2021/05/20 06:57:26;;;;;;;5.00;2.70;;;;;;;10.50;100.00;96753.25;5037798;28;20316;-68
2021/05/20 07:00:00;;;;;;;3.43;2.00;;;;;;;10.42;100.00;96750.63;5038576;28;20732;-68
2021/05/20 07:02:28;;;;;;;3.63;2.17;;;;;;;10.58;99.63;96755.06;5038538;28;20221;-68
2021/05/20 07:04:55;;;;;;;3.73;2.20;;;;;;;10.92;99.92;96759.19;5038771;28;20201;-68
2021/05/20 07:07:21;;;;;;;2.77;1.83;;;;;;;10.93;98.28;96754.72;5037734;28;20197;-68
2021/05/20 07:09:48;;;;;;;7.00;2.60;;;;;;;11.10;98.94;96762.47;5038155;28;20197;-68
2021/05/20 07:12:16;;;;;;;3.90;2.77;;;;;;;11.19;99.31;96762.25;5037598;28;20240;-68
2021/05/20 07:14:43;;;;;;;4.97;2.87;;;;;;;11.17;98.71;96758.97;5038346;28;20229;-68
2021/05/20 07:17:09;;;;;;;4.67;2.90;;;;;;;10.93;97.58;96755.53;5037273;28;20201;-69
2021/05/20 07:19:36;;;;;;;3.83;2.70;;;;;;;10.97;97.69;96760.31;5038116;28;20204;-68
2021/05/20 07:22:03;;;;;;;2.73;1.93;;;;;;;10.96;97.76;96761.31;5037992;28;20229;-68
2021/05/20 07:24:30;;;;;;;3.33;2.47;;;;;;;11.03;98.68;96766.75;5037698;28;20201;-68
2021/05/20 07:26:56;;;;;;;2.97;2.23;;;;;;;11.20;97.84;96763.91;5037337;28;20565;-68
2021/05/20 07:29:22;;;;;;;7.03;3.63;;;;;;;11.46;97.07;96766.31;5038321;28;20602;-68
2021/05/20 07:31:48;;;;;;;3.93;2.23;;;;;;;11.64;95.18;96765.13;5037901;28;20236;-69
2021/05/20 07:34:14;;;;;;;4.23;2.27;;;;;;;11.74;93.29;96763.13;5037690;28;20205;-68
2021/05/20 07:36:41;;;;;;;4.87;2.30;;;;;;;11.79;91.52;96763.44;5034975;28;20205;-68
2021/05/20 07:39:08;;;;;;;6.10;2.60;;;;;;;11.68;88.38;96769.06;5037720;28;20959;-69
2021/05/20 07:41:34;;;;;;;3.10;2.67;;;;;;;11.76;89.93;96761.13;5037405;28;20225;-68
2021/05/20 07:44:01;;;;;;;2.90;2.03;;;;;;;11.76;90.87;96767.25;5038188;28;20303;-69
2021/05/20 07:46:27;;;;;;;1.90;1.70;;;;;;;11.84;88.91;96755.81;5036920;28;20205;-69
2021/05/20 07:48:53;;;;;;;2.03;1.70;;;;;;;11.92;87.34;96761.88;5037557;28;20977;-69
2021/05/20 07:51:19;;;;;;;3.47;2.07;;;;;;;12.26;89.54;96760.53;5037063;28;20259;-68
2021/05/20 07:53:46;;;;;;;2.47;2.03;;;;;;;12.51;85.35;96753.25;5038155;28;20197;-68
2021/05/20 07:56:12;;;;;;;5.13;2.50;;;;;;;12.41;88.26;96758.78;5037288;28;20233;-69
2021/05/20 07:58:38;;;;;;;2.58;1.95;;;;;;;12.34;87.78;96768.41;5036899;28;20355;-69
2021/05/20 08:01:04;;;;;;;3.45;1.98;;;;;;;12.06;84.55;96753.22;5037685;28;20232;-68
2021/05/20 08:03:34;;;;;;;1.73;1.63;;;;;;;11.83;81.29;96762.91;5038227;28;20314;-68
2021/05/20 08:06:06;;;;;;;5.07;1.93;;;;;;;11.84;84.66;96759.28;5036666;28;20228;-68
2021/05/20 08:08:34;;;;;;;3.57;1.70;;;;;;;11.96;81.18;96757.06;5038186;28;20201;-69
2021/05/20 08:11:04;;;;;;;3.03;1.70;;;;;;;12.42;84.44;96752.50;5037293;28;20290;-68
2021/05/20 08:13:30;;;;;;;4.53;1.50;;;;;;;12.70;79.24;96753.59;5037635;28;20608;-69
2021/05/20 08:15:57;;;;;;;3.50;1.67;;;;;;;12.68;78.98;96741.53;5036418;28;20272;-69
2021/05/20 08:18:23;;;;;;;2.37;1.40;;;;;;;12.71;80.85;96747.31;5037052;28;20260;-68
2021/05/20 08:20:49;;;;;;;1.48;1.00;;;;;;;12.58;74.98;96760.31;5036949;28;20219;-68
2021/05/20 08:23:15;;;;;;;2.27;1.30;;;;;;;12.93;72.50;96743.84;5037505;28;20205;-69
2021/05/20 08:25:40;;;;;;;2.15;1.10;;;;;;;13.42;77.16;96740.53;5036821;28;20284;-69
2021/05/20 08:28:07;;;;;;;1.38;1.00;;;;;;;13.26;72.86;96745.19;5036510;28;20734;-69
2021/05/20 08:30:34;;;;;;;1.60;1.00;;;;;;;13.05;73.85;96737.94;5037026;28;20212;-69
2021/05/20 08:33:00;;;;;;;1.58;1.10;;;;;;;12.86;77.84;96738.44;5037191;28;20201;-69
2021/05/20 08:35:26;;;;;;;2.17;1.08;;;;;;;12.62;76.96;96740.44;5033747;28;20247;-69
2021/05/20 08:37:52;;;;;;;1.58;0.90;;;;;;;12.62;72.37;96743.09;5036442;28;20312;-68
2021/05/20 08:40:18;;;;;;;3.72;1.00;;;;;;;12.47;76.01;96747.50;5036728;28;20320;-68
2021/05/20 08:42:45;;;;;;;3.30;1.35;;;;;;;12.32;78.54;96757.19;5036147;28;20267;-68
2021/05/20 08:45:15;;;;;;;3.30;1.30;;;;;;;12.18;79.75;96747.38;5035343;28;20201;-69
2021/05/20 08:47:42;;;;;;;1.77;1.10;;;;;;;12.19;81.22;96749.03;5035820;28;20201;-68
2021/05/20 08:50:09;;;;;;;1.85;1.38;;;;;;;12.22;82.46;96751.31;5036490;28;20258;-68
2021/05/20 08:52:36;;;;;;;0.77;0.73;;;;;;;12.22;79.13;96748.66;5036349;28;20570;-69
2021/05/20 08:55:03;;;;;;;2.77;1.00;;;;;;;12.21;79.93;96747.00;5035204;28;20248;-68
2021/05/20 08:57:29;;;;;;;2.30;0.80;;;;;;;12.32;78.43;96745.78;5035862;28;20201;-68
2021/05/20 08:59:55;;;;;;;1.80;1.03;;;;;;;12.35;79.49;96746.25;5036340;28;20209;-68
2021/05/20 09:02:24;;;;;;;1.07;0.80;;;;;;;12.21;75.90;96757.59;5035359;28;20279;-69
2021/05/20 09:05:00;;;;;;;1.40;0.70;;;;;;;12.14;77.50;96755.81;5035792;28;20201;-68
2021/05/20 09:07:33;;;;;;;0.50;0.50;;;;;;;11.68;76.13;96759.34;5037406;28;20200;-68
2021/05/20 09:10:18;;;;;;;0.50;0.50;;;;;;;11.24;78.87;96765.22;5035971;28;20279;-69
2021/05/20 09:12:46;;;;;;;0.43;0.30;;;;;;;11.01;84.16;96780.09;5035924;28;20232;-68
2021/05/20 09:15:18;;;;;;;1.23;0.40;;;;;;;10.78;89.11;96786.22;5035804;28;21004;-69
2021/05/20 09:17:45;;;;;;;0.77;0.60;;;;;;;10.40;94.43;96788.66;5036774;28;20212;-69
2021/05/20 09:20:13;;;;;;;1.30;0.70;;;;;;;10.32;99.38;96785.16;5036466;28;20201;-68
2021/05/20 09:22:40;;;;;;;3.20;1.00;;;;;;;10.12;100.00;96778.53;5035623;28;20217;-68
2021/05/20 09:25:08;;;;;;;2.87;0.80;;;;;;;9.92;100.00;96783.22;5035497;28;20226;-69
2021/05/20 09:27:37;;;;;;;2.17;0.73;;;;;;;10.18;100.00;96780.53;5036111;28;20204;-68
2021/05/20 09:30:18;;;;;;;0.43;0.43;;;;;;;10.41;100.00;96775.31;5036280;28;20211;-68
2021/05/20 09:32:48;;;;;;;0.60;0.53;;;;;;;10.72;100.00;96767.59;5032764;28;20221;-68
2021/05/20 09:35:16;;;;;;;0.83;0.57;;;;;;;10.97;100.00;96768.25;5032082;28;20217;-68
2021/05/20 09:37:47;;;;;;;0.90;0.50;;;;;;;11.17;99.19;96766.06;5036480;28;20201;-69
2021/05/20 09:40:15;;;;;;;0.70;0.50;;;;;;;11.56;99.46;96765.97;5036051;28;20205;-68
2021/05/20 09:42:40;;;;;;;0.60;0.57;;;;;;;11.94;99.08;96761.69;5035759;28;20707;-68
2021/05/20 09:45:08;;;;;;;0.40;0.40;;;;;;;12.14;97.51;96770.84;5035712;28;20204;-69
2021/05/20 09:47:34;;;;;;;1.00;0.50;;;;;;;12.23;90.22;96771.44;5036345;28;20189;-69
2021/05/20 09:50:04;;;;;;;0.70;0.53;;;;;;;12.15;91.41;96775.13;5035665;28;20212;-69
2021/05/20 09:52:31;;;;;;;0.80;0.50;;;;;;;12.01;94.62;96771.41;5035955;28;20252;-69
2021/05/20 09:54:57;;;;;;;1.97;0.63;;;;;;;11.65;88.77;96774.72;5036309;28;20233;-68
2021/05/20 09:57:30;;;;;;;1.20;0.77;;;;;;;11.60;92.76;96767.28;5035204;28;20201;-68
2021/05/20 10:00:10;;;;;;;1.53;0.90;;;;;;;11.40;93.48;96778.38;5036287;28;20279;-68
2021/05/20 10:02:37;;;;;;;2.93;1.40;;;;;;;11.56;97.21;96776.53;5036403;28;20221;-68
2021/05/20 10:05:27;;;;;;;3.40;1.00;;;;;;;11.51;99.16;96783.31;5035395;28;20206;-68
2021/05/20 10:07:54;;;;;;;1.37;0.70;;;;;;;11.35;99.80;96779.88;5036490;28;20206;-70
2021/05/20 10:10:20;;;;;;;3.43;0.80;;;;;;;11.79;98.81;96776.63;5037782;28;20212;-68
2021/05/20 10:12:47;;;;;;;2.70;0.70;;;;;;;12.07;98.93;96775.19;5039082;28;20233;-68
2021/05/20 10:15:18;;;;;;;2.00;0.90;;;;;;;12.02;99.06;96774.88;5038719;28;20322;-70
2021/05/20 10:17:45;;;;;;;2.40;0.80;;;;;;;12.01;96.00;96770.59;5040901;28;20205;-70
2021/05/20 10:20:14;;;;;;;3.88;0.90;;;;;;;12.03;100.00;96780.00;5039743;28;20201;-68
2021/05/20 10:22:41;;;;;;;0.60;0.60;;;;;;;12.06;99.56;96776.19;5039311;28;20217;-68
2021/05/20 10:25:08;;;;;;;2.73;0.60;;;;;;;11.82;92.39;96773.63;5038858;28;20645;-68
2021/05/20 10:27:39;;;;;;;1.65;0.85;;;;;;;12.01;96.13;96770.59;5039678;28;20308;-69
2021/05/20 10:30:07;;;;;;;2.00;0.68;;;;;;;12.39;94.50;96767.88;5038796;28;20193;-68
2021/05/20 10:32:34;;;;;;;0.60;0.60;;;;;;;12.81;88.95;96761.13;5039564;28;20221;-69
2021/05/20 10:35:03;;;;;;;1.75;0.60;;;;;;;13.22;88.64;96752.66;5035915;28;20236;-68
2021/05/20 10:37:37;;;;;;;1.00;0.50;;;;;;;13.55;87.39;96751.31;5039084;28;20247;-68
2021/05/20 10:40:20;;;;;;;1.58;0.50;;;;;;;14.00;89.78;96746.59;5039408;28;20589;-68
2021/05/20 10:42:46;;;;;;;1.02;0.45;;;;;;;14.16;81.17;96739.28;5036418;28;20221;-68
2021/05/20 10:45:20;;;;;;;1.10;0.60;;;;;;;14.47;80.61;96736.38;5038192;28;20271;-68
2021/05/20 10:48:20;;;;;;;1.15;0.70;;;;;;;14.60;76.02;96747.09;5039310;28;20679;-68
2021/05/20 10:51:06;;;;;;;4.65;0.50;;;;;;;14.81;79.30;96737.31;5030744;28;20208;-68
2021/05/20 10:54:09;;;;;;;0.95;0.40;;;;;;;14.86;71.30;96733.06;5038270;28;20216;-68
2021/05/20 10:56:54;;;;;;;0.82;0.65;;;;;;;14.85;73.92;96734.09;5038019;28;20228;-68
2021/05/20 10:59:50;;;;;;;0.57;0.57;;;;;;;15.00;72.53;96726.06;5038382;28;20236;-68
2021/05/20 11:02:50;;;;;;;0.85;0.50;;;;;;;15.11;73.34;96717.56;5038132;28;20518;-68
2021/05/20 11:05:54;;;;;;;0.38;0.38;;;;;;;14.83;70.55;96727.34;5037474;28;20243;-68
2021/05/20 11:08:57;;;;;;;1.52;0.40;;;;;;;15.31;70.37;96720.19;5037656;28;20653;-69
2021/05/20 11:11:48;;;;;;;41.55;2.60;;;;;;;15.57;73.25;96727.53;5037187;28;20228;-67
2021/05/20 11:14:39;;;;;;;1.48;0.77;;;;;;;15.40;66.25;96723.50;5037528;28;20243;-68
2021/05/20 11:17:43;;;;;;;0.90;0.60;;;;;;;15.09;69.96;96719.59;5037267;28;20209;-68
2021/05/20 11:20:40;;;;;;;1.05;0.95;;;;;;;15.59;67.84;96718.34;5037187;28;20209;-68
2021/05/20 11:23:23;;;;;;;1.52;0.60;;;;;;;15.41;64.57;96709.22;5038206;28;20284;-68
2021/05/20 11:26:13;;;;;;;0.75;0.55;;;;;;;15.94;68.66;96711.97;5038281;28;20200;-68
2021/05/20 11:29:01;;;;;;;1.60;0.55;;;;;;;15.95;63.23;96706.44;5038242;28;20197;-68
2021/05/20 11:31:28;;;;;;;0.57;0.50;;;;;;;15.87;69.39;96698.66;5038247;28;20217;-68
2021/05/20 11:34:01;;;;;;;0.85;0.50;;;;;;;15.55;65.37;96700.31;5037522;28;20204;-68
2021/05/20 11:36:37;;;;;;;0.95;0.65;;;;;;;15.30;67.22;96699.16;5033741;28;20311;-73
2021/05/20 11:39:06;;;;;;;0.95;0.50;;;;;;;14.71;67.58;96697.88;5037713;28;20204;-73